createdAt,value
2018-08-07T00:00:03.660Z,70.76
2018-08-07T00:01:03.784Z,70.70
2018-08-07T00:02:03.627Z,71.25
2018-08-07T00:03:03.698Z,70.48
2018-08-07T00:04:03.592Z,71.00
2018-08-07T00:05:03.711Z,70.86
2018-08-07T00:06:03.551Z,70.96
2018-08-07T00:07:03.622Z,70.76
2018-08-07T00:08:03.518Z,70.96
2018-08-07T00:09:03.637Z,71.44
2018-08-07T00:10:03.478Z,71.44
2018-08-07T00:11:03.561Z,72.73
2018-08-07T00:12:03.446Z,71.64
2018-08-07T00:13:03.563Z,71.64
2018-08-07T00:14:03.405Z,72.12
2018-08-07T00:15:03.475Z,71.06
2018-08-07T00:16:03.372Z,71.73
2018-08-07T00:17:03.504Z,71.92
2018-08-07T00:18:03.397Z,71.34
2018-08-07T00:19:03.402Z,71.15
2018-08-07T00:20:03.295Z,71.25
2018-08-07T00:21:03.415Z,70.67
2018-08-07T00:22:03.310Z,70.28
2018-08-07T00:23:03.257Z,70.96
2018-08-07T00:24:03.226Z,70.57
2018-08-07T00:25:03.342Z,70.76
2018-08-07T00:26:03.195Z,71.25
2018-08-07T00:27:03.257Z,72.12
2018-08-07T00:28:03.148Z,72.31
2018-08-07T00:29:03.267Z,72.12
2018-08-07T00:30:03.110Z,73.37
2018-08-07T00:31:03.284Z,71.73
2018-08-07T00:32:03.087Z,71.92
2018-08-07T00:33:03.196Z,73.18
2018-08-07T00:34:03.039Z,73.47
2018-08-07T00:35:03.211Z,72.08
2018-08-07T00:36:03.002Z,72.18
2018-08-07T00:37:03.123Z,72.66
2018-08-07T00:38:02.955Z,73.27
2018-08-07T00:39:02.952Z,72.95
2018-08-07T00:40:03.041Z,72.85
2018-08-07T00:41:02.909Z,72.66
2018-08-07T00:42:03.055Z,72.08
2018-08-07T00:43:02.874Z,71.79
2018-08-07T00:44:02.967Z,72.08
2018-08-07T00:45:02.835Z,72.66
2018-08-07T00:46:02.989Z,72.56
2018-08-07T00:47:02.800Z,73.24
2018-08-07T00:48:02.892Z,72.37
2018-08-07T00:49:02.760Z,72.47
2018-08-07T00:50:02.923Z,71.70
2018-08-07T00:51:02.726Z,71.50
2018-08-07T00:52:02.818Z,71.60
2018-08-07T00:53:02.686Z,71.50
2018-08-07T00:54:02.832Z,71.02
2018-08-07T00:55:02.652Z,71.60
2018-08-07T00:56:02.644Z,72.08
2018-08-07T00:57:02.610Z,71.98
2018-08-07T00:58:02.805Z,72.56
2018-08-07T00:59:02.576Z,72.47
2018-08-07T01:00:02.772Z,71.76
2018-08-07T01:01:02.536Z,71.89
2018-08-07T01:02:02.683Z,71.95
2018-08-07T01:03:02.502Z,71.70
2018-08-07T01:04:02.619Z,71.66
2018-08-07T01:05:02.475Z,71.18
2018-08-07T01:06:02.506Z,71.18
2018-08-07T01:07:02.426Z,72.05
2018-08-07T01:08:02.520Z,72.24
2018-08-07T01:09:02.388Z,72.24
2018-08-07T01:10:02.434Z,72.72
2018-08-07T01:11:02.376Z,72.63
2018-08-07T01:12:02.447Z,72.33
2018-08-07T01:13:02.314Z,72.43
2018-08-07T01:14:02.359Z,72.72
2018-08-07T01:15:02.274Z,72.24
2018-08-07T01:16:02.374Z,72.63
2018-08-07T01:17:02.236Z,72.81
2018-08-07T01:18:02.284Z,72.91
2018-08-07T01:19:02.199Z,72.72
2018-08-07T01:20:02.299Z,73.30
2018-08-07T01:21:02.156Z,72.72
2018-08-07T01:22:02.214Z,72.43
2018-08-07T01:23:02.118Z,72.43
2018-08-07T01:24:02.226Z,72.43
2018-08-07T01:25:02.083Z,73.20
2018-08-07T01:26:02.140Z,73.10
2018-08-07T01:27:02.056Z,72.91
2018-08-07T01:28:02.151Z,72.81
2018-08-07T01:29:02.008Z,73.16
2018-08-07T01:30:02.067Z,72.78
2018-08-07T01:31:01.967Z,73.07
2018-08-07T01:32:02.080Z,72.97
2018-08-07T01:33:01.942Z,73.16
2018-08-07T01:34:01.993Z,72.59
2018-08-07T01:35:01.894Z,72.39
2018-08-07T01:36:02.005Z,72.30
2018-08-07T01:37:01.850Z,72.59
2018-08-07T01:38:01.917Z,72.88
2018-08-07T01:39:01.810Z,73.46
2018-08-07T01:40:01.929Z,73.46
2018-08-07T01:41:01.779Z,73.36
2018-08-07T01:42:01.868Z,73.65
2018-08-07T01:43:01.739Z,73.74
2018-08-07T01:44:01.856Z,73.94
2018-08-07T01:45:01.700Z,74.22
2018-08-07T01:46:01.769Z,74.41
2018-08-07T01:47:01.662Z,72.97
2018-08-07T01:48:01.783Z,73.07
2018-08-07T01:49:01.645Z,72.88
2018-08-07T01:50:01.694Z,72.49
2018-08-07T01:51:01.586Z,72.88
2018-08-07T01:52:01.713Z,73.26
2018-08-07T01:53:01.543Z,73.65
2018-08-07T01:54:01.632Z,73.74
2018-08-07T01:55:01.511Z,73.26
2018-08-07T01:56:01.642Z,73.65
2018-08-07T01:57:01.467Z,74.61
2018-08-07T01:58:01.553Z,74.90
2018-08-07T01:59:01.435Z,74.99
2018-08-07T02:00:01.561Z,74.22
2018-08-07T02:01:01.394Z,73.94
2018-08-07T02:02:01.485Z,73.46
2018-08-07T02:03:01.347Z,73.84
2018-08-07T02:04:01.499Z,74.38
2018-08-07T02:05:01.312Z,74.32
2018-08-07T02:06:01.411Z,75.09
2018-08-07T02:07:01.274Z,74.03
2018-08-07T02:08:01.423Z,74.38
2018-08-07T02:09:01.236Z,74.57
2018-08-07T02:10:01.332Z,75.15
2018-08-07T02:11:01.192Z,75.63
2018-08-07T02:12:01.342Z,75.19
2018-08-07T02:13:01.160Z,75.15
2018-08-07T02:14:01.258Z,74.96
2018-08-07T02:15:01.118Z,74.86
2018-08-07T02:16:01.280Z,74.67
2018-08-07T02:17:01.084Z,75.92
2018-08-07T02:18:01.075Z,75.73
2018-08-07T02:19:01.198Z,75.92
2018-08-07T02:20:01.023Z,75.73
2018-08-07T02:21:01.098Z,74.96
2018-08-07T02:22:00.983Z,75.63
2018-08-07T02:23:01.120Z,75.92
2018-08-07T02:24:00.945Z,75.92
2018-08-07T02:25:01.035Z,75.34
2018-08-07T02:26:00.901Z,75.73
2018-08-07T02:27:01.050Z,75.24
2018-08-07T02:28:00.864Z,75.73
2018-08-07T02:29:01.023Z,75.63
2018-08-07T02:30:00.833Z,76.40
2018-08-07T02:31:00.966Z,76.50
2018-08-07T02:32:00.788Z,76.31
2018-08-07T02:33:00.887Z,76.50
2018-08-07T02:34:00.742Z,75.92
2018-08-07T02:35:00.900Z,76.50
2018-08-07T02:36:00.708Z,76.40
2018-08-07T02:37:00.840Z,75.92
2018-08-07T02:38:00.664Z,76.11
2018-08-07T02:39:00.820Z,76.17
2018-08-07T02:40:00.633Z,76.31
2018-08-07T02:41:00.734Z,75.98
2018-08-07T02:42:00.592Z,76.36
2018-08-07T02:43:00.747Z,76.84
2018-08-07T02:44:00.554Z,76.94
2018-08-07T02:45:01.274Z,76.98
2018-08-07T02:46:00.511Z,77.17
2018-08-07T02:47:00.672Z,77.84
2018-08-07T02:48:00.476Z,76.94
2018-08-07T02:49:00.583Z,77.04
2018-08-07T02:50:00.430Z,76.84
2018-08-07T02:51:00.598Z,76.75
2018-08-07T02:52:00.394Z,76.56
2018-08-07T02:53:00.509Z,77.04
2018-08-07T02:54:00.356Z,77.13
2018-08-07T02:55:00.338Z,76.75
2018-08-07T02:56:00.428Z,77.71
2018-08-07T02:57:00.297Z,77.42
2018-08-07T02:58:00.340Z,77.23
2018-08-07T02:59:00.255Z,77.61
2018-08-07T03:00:00.352Z,77.23
2018-08-07T03:01:00.215Z,76.94
2018-08-07T03:02:00.264Z,77.42
2018-08-07T03:03:00.179Z,77.33
2018-08-07T03:04:00.279Z,77.71
2018-08-07T03:05:00.134Z,77.61
2018-08-07T03:06:00.191Z,77.90
2018-08-07T03:07:00.095Z,77.71
2018-08-07T03:08:00.207Z,78.28
2018-08-07T03:09:00.064Z,77.81
2018-08-07T03:10:00.118Z,77.33
2018-08-07T03:11:00.020Z,77.51
2018-08-07T03:12:00.132Z,77.51
2018-08-07T03:12:59.977Z,77.71
2018-08-07T03:14:00.044Z,78.38
2018-08-07T03:14:59.937Z,77.96
2018-08-07T03:16:00.058Z,78.53
2018-08-07T03:16:59.899Z,78.15
2018-08-07T03:17:59.996Z,78.06
2018-08-07T03:18:59.856Z,78.77
2018-08-07T03:19:59.982Z,78.44
2018-08-07T03:20:59.819Z,78.28
2018-08-07T03:21:59.893Z,77.90
2018-08-07T03:22:59.776Z,77.76
2018-08-07T03:23:59.804Z,78.53
2018-08-07T03:24:59.739Z,78.15
2018-08-07T03:25:59.819Z,78.73
2018-08-07T03:26:59.701Z,78.09
2018-08-07T03:27:59.732Z,78.44
2018-08-07T03:28:59.658Z,78.96
2018-08-07T03:29:59.744Z,79.30
2018-08-07T03:30:59.618Z,78.34
2018-08-07T03:31:59.665Z,78.63
2018-08-07T03:32:59.577Z,78.44
2018-08-07T03:33:59.671Z,78.63
2018-08-07T03:34:59.535Z,78.63
2018-08-07T03:35:59.584Z,78.53
2018-08-07T03:36:59.499Z,78.53
2018-08-07T03:37:59.598Z,78.53
2018-08-07T03:38:59.462Z,78.44
2018-08-07T03:39:59.509Z,78.34
2018-08-07T03:40:59.415Z,78.92
2018-08-07T03:41:59.525Z,78.92
2018-08-07T03:42:59.376Z,79.88
2018-08-07T03:43:59.458Z,79.40
2018-08-07T03:44:59.336Z,79.30
2018-08-07T03:45:59.450Z,79.11
2018-08-07T03:46:59.296Z,78.83
2018-08-07T03:47:59.361Z,78.83
2018-08-07T03:48:59.256Z,79.02
2018-08-07T03:49:59.374Z,79.60
2018-08-07T03:50:59.215Z,79.40
2018-08-07T03:51:59.287Z,79.21
2018-08-07T03:52:59.194Z,79.79
2018-08-07T03:53:59.301Z,79.21
2018-08-07T03:54:59.133Z,79.02
2018-08-07T03:55:59.216Z,79.50
2018-08-07T03:56:59.096Z,79.88
2018-08-07T03:57:59.081Z,79.79
2018-08-07T03:58:59.238Z,79.69
2018-08-07T03:59:59.035Z,79.88
2018-08-07T04:00:59.017Z,79.79
2018-08-07T04:01:59.083Z,80.36
2018-08-07T04:02:58.976Z,80.07
2018-08-07T04:03:58.956Z,80.36
2018-08-07T04:04:59.025Z,81.13
2018-08-07T04:05:59.082Z,80.65
2018-08-07T04:06:58.894Z,80.61
2018-08-07T04:07:59.006Z,80.65
2018-08-07T04:08:58.999Z,80.84
2018-08-07T04:09:58.831Z,81.09
2018-08-07T04:10:58.910Z,80.99
2018-08-07T04:11:58.790Z,81.09
2018-08-07T04:12:58.926Z,81.23
2018-08-07T04:13:58.750Z,81.76
2018-08-07T04:14:58.836Z,82.09
2018-08-07T04:15:58.709Z,81.99
2018-08-07T04:16:58.857Z,81.81
2018-08-07T04:17:58.668Z,81.04
2018-08-07T04:18:58.658Z,80.84
2018-08-07T04:19:58.770Z,81.52
2018-08-07T04:20:58.610Z,81.90
2018-08-07T04:21:58.784Z,82.19
2018-08-07T04:22:58.571Z,81.52
2018-08-07T04:23:58.696Z,81.42
2018-08-07T04:24:58.536Z,81.71
2018-08-07T04:25:58.728Z,81.99
2018-08-07T04:26:58.487Z,81.32
2018-08-07T04:27:58.649Z,81.42
2018-08-07T04:28:58.452Z,81.13
2018-08-07T04:29:58.662Z,80.84
2018-08-07T04:30:58.403Z,80.94
2018-08-07T04:31:58.550Z,81.04
2018-08-07T04:32:58.363Z,81.13
2018-08-07T04:33:58.462Z,81.71
2018-08-07T04:34:58.322Z,81.90
2018-08-07T04:35:58.476Z,81.90
2018-08-07T04:36:58.285Z,82.19
2018-08-07T04:37:58.386Z,81.71
2018-08-07T04:38:58.242Z,81.71
2018-08-07T04:39:58.400Z,81.90
2018-08-07T04:40:58.202Z,82.19
2018-08-07T04:41:58.316Z,81.99
2018-08-07T04:42:58.160Z,82.57
2018-08-07T04:43:58.326Z,82.38
2018-08-07T04:44:58.120Z,81.99
2018-08-07T04:45:58.157Z,82.29
2018-08-07T04:46:58.079Z,81.90
2018-08-07T04:47:58.150Z,81.90
2018-08-07T04:48:58.041Z,81.81
2018-08-07T04:49:58.066Z,82.19
2018-08-07T04:50:57.997Z,81.90
2018-08-07T04:51:58.077Z,82.09
2018-08-07T04:52:57.957Z,81.81
2018-08-07T04:53:57.988Z,81.99
2018-08-07T04:54:57.920Z,81.90
2018-08-07T04:55:58.004Z,81.71
2018-08-07T04:56:57.929Z,81.13
2018-08-07T04:57:57.959Z,81.90
2018-08-07T04:58:57.834Z,81.99
2018-08-07T04:59:57.931Z,81.71
2018-08-07T05:00:57.792Z,81.84
2018-08-07T05:01:57.843Z,81.37
2018-08-07T05:02:57.754Z,81.81
2018-08-07T05:03:57.861Z,81.52
2018-08-07T05:04:57.714Z,81.61
2018-08-07T05:05:57.776Z,81.71
2018-08-07T05:06:57.673Z,81.81
2018-08-07T05:07:57.782Z,81.71
2018-08-07T05:08:57.632Z,82.09
2018-08-07T05:09:57.695Z,81.71
2018-08-07T05:10:57.594Z,81.17
2018-08-07T05:11:57.709Z,81.56
2018-08-07T05:12:57.551Z,80.79
2018-08-07T05:13:57.636Z,81.17
2018-08-07T05:14:57.516Z,82.14
2018-08-07T05:15:57.635Z,82.52
2018-08-07T05:16:57.470Z,81.75
2018-08-07T05:17:57.547Z,80.98
2018-08-07T05:18:57.431Z,80.98
2018-08-07T05:19:57.560Z,81.07
2018-08-07T05:20:57.385Z,80.88
2018-08-07T05:21:57.473Z,81.37
2018-08-07T05:22:57.347Z,81.56
2018-08-07T05:23:57.387Z,80.73
2018-08-07T05:24:57.311Z,79.73
2018-08-07T05:25:57.399Z,79.48
2018-08-07T05:26:57.265Z,81.50
2018-08-07T05:27:57.312Z,81.21
2018-08-07T05:28:57.231Z,80.35
2018-08-07T05:29:57.339Z,79.00
2018-08-07T05:30:57.186Z,78.33
2018-08-07T05:31:57.236Z,79.19
2018-08-07T05:32:57.150Z,79.58
2018-08-07T05:33:57.250Z,79.86
2018-08-07T05:34:57.105Z,78.23
2018-08-07T05:35:57.210Z,77.01
2018-08-07T05:36:57.078Z,77.78
2018-08-07T05:37:57.176Z,79.23
2018-08-07T05:38:57.024Z,79.03
2018-08-07T05:39:57.100Z,78.36
2018-08-07T05:40:56.987Z,77.88
2018-08-07T05:41:57.102Z,77.40
2018-08-07T05:42:56.945Z,77.59
2018-08-07T05:43:57.014Z,77.50
2018-08-07T05:44:56.912Z,76.25
2018-08-07T05:45:57.030Z,76.25
2018-08-07T05:46:56.867Z,75.67
2018-08-07T05:47:56.942Z,75.76
2018-08-07T05:48:56.825Z,75.80
2018-08-07T05:49:56.967Z,75.99
2018-08-07T05:50:57.141Z,75.90
2018-08-07T05:51:56.868Z,76.38
2018-08-07T05:52:56.748Z,76.96
2018-08-07T05:53:56.886Z,76.96
2018-08-07T05:54:56.707Z,76.18
2018-08-07T05:55:56.791Z,76.38
2018-08-07T05:56:56.670Z,76.96
2018-08-07T05:57:56.869Z,74.74
2018-08-07T05:58:56.633Z,73.49
2018-08-07T05:59:56.720Z,74.40
2018-08-07T06:00:56.589Z,74.97
2018-08-07T06:01:56.735Z,74.10
2018-08-07T06:02:56.547Z,74.01
2018-08-07T06:03:56.644Z,74.58
2018-08-07T06:04:56.522Z,74.40
2018-08-07T06:05:56.663Z,75.16
2018-08-07T06:06:56.469Z,74.30
2018-08-07T06:07:56.571Z,73.82
2018-08-07T06:08:56.431Z,73.53
2018-08-07T06:09:56.605Z,73.24
2018-08-07T06:10:56.464Z,73.05
2018-08-07T06:11:56.525Z,73.18
2018-08-07T06:12:56.351Z,73.08
2018-08-07T06:13:56.512Z,73.27
2018-08-07T06:14:56.311Z,72.60
2018-08-07T06:15:56.427Z,72.69
2018-08-07T06:16:56.279Z,72.02
2018-08-07T06:17:56.440Z,71.73
2018-08-07T06:18:56.237Z,70.76
2018-08-07T06:19:56.367Z,70.96
2018-08-07T06:20:56.197Z,70.90
2018-08-07T06:21:56.367Z,70.48
2018-08-07T06:22:56.160Z,70.86
2018-08-07T06:23:56.143Z,70.90
2018-08-07T06:24:56.317Z,71.00
2018-08-07T06:25:56.101Z,69.93
2018-08-07T06:26:56.193Z,70.90
2018-08-07T06:27:56.201Z,69.74
2018-08-07T06:28:56.045Z,69.26
2018-08-07T06:29:56.215Z,68.10
2018-08-07T06:30:56.016Z,68.23
2018-08-07T06:31:56.127Z,69.78
2018-08-07T06:32:55.965Z,69.29
2018-08-07T06:33:56.143Z,69.20
2018-08-07T06:34:55.970Z,68.33
2018-08-07T06:35:55.952Z,67.94
2018-08-07T06:36:55.887Z,68.13
2018-08-07T06:37:55.959Z,68.33
2018-08-07T06:38:55.973Z,68.52
2018-08-07T06:39:55.830Z,69.20
2018-08-07T06:40:55.884Z,67.46
2018-08-07T06:41:55.793Z,67.78
2018-08-07T06:42:55.939Z,67.69
2018-08-07T06:43:55.757Z,67.59
2018-08-07T06:44:55.810Z,66.72
2018-08-07T06:45:55.718Z,67.59
2018-08-07T06:46:55.822Z,67.49
2018-08-07T06:47:55.709Z,68.07
2018-08-07T06:48:55.762Z,67.69
2018-08-07T06:49:55.644Z,67.97
2018-08-07T06:50:55.753Z,66.91
2018-08-07T06:51:55.606Z,66.82
2018-08-07T06:52:55.666Z,66.94
2018-08-07T06:53:55.576Z,66.36
2018-08-07T06:54:55.683Z,66.46
2018-08-07T06:55:55.537Z,65.11
2018-08-07T06:56:55.604Z,65.11
2018-08-07T06:57:55.497Z,65.20
2018-08-07T06:58:55.479Z,65.30
2018-08-07T06:59:55.509Z,65.14
2018-08-07T07:00:55.444Z,65.14
2018-08-07T07:01:55.567Z,65.24
2018-08-07T07:02:55.401Z,64.56
2018-08-07T07:03:55.381Z,64.66
2018-08-07T07:04:55.377Z,63.79
2018-08-07T07:05:55.349Z,64.85
2018-08-07T07:06:55.330Z,64.37
2018-08-07T07:07:55.313Z,63.21
2018-08-07T07:08:55.292Z,63.89
2018-08-07T07:09:55.398Z,63.98
2018-08-07T07:10:55.247Z,64.50
2018-08-07T07:11:55.312Z,64.01
2018-08-07T07:12:55.219Z,64.56
2018-08-07T07:13:55.321Z,64.40
2018-08-07T07:14:55.209Z,63.63
2018-08-07T07:15:55.335Z,63.14
2018-08-07T07:16:55.144Z,61.98
2018-08-07T07:17:55.268Z,61.50
2018-08-07T07:18:55.107Z,61.11
2018-08-07T07:19:55.089Z,61.15
2018-08-07T07:20:55.095Z,62.01
2018-08-07T07:21:55.152Z,62.11
2018-08-07T07:22:55.035Z,61.15
2018-08-07T07:23:55.166Z,60.95
2018-08-07T07:24:55.000Z,60.57
2018-08-07T07:25:55.081Z,61.24
2018-08-07T07:26:54.968Z,60.17
2018-08-07T07:27:55.110Z,61.36
2018-08-07T07:28:54.944Z,61.76
2018-08-07T07:29:55.007Z,61.85
2018-08-07T07:30:54.894Z,60.98
2018-08-07T07:31:55.017Z,60.30
2018-08-07T07:32:54.854Z,60.78
2018-08-07T07:33:54.940Z,60.11
2018-08-07T07:34:54.838Z,60.01
2018-08-07T07:35:54.801Z,60.21
2018-08-07T07:36:54.848Z,59.46
2018-08-07T07:37:54.763Z,58.49
2018-08-07T07:38:54.859Z,59.84
2018-08-07T07:39:54.792Z,58.59
2018-08-07T07:40:54.714Z,59.36
2018-08-07T07:41:54.792Z,59.07
2018-08-07T07:42:54.682Z,58.72
2018-08-07T07:43:54.693Z,57.94
2018-08-07T07:44:54.652Z,59.59
2018-08-07T07:45:54.707Z,58.14
2018-08-07T07:46:54.660Z,58.14
2018-08-07T07:47:54.728Z,58.42
2018-08-07T07:48:54.581Z,58.42
2018-08-07T07:49:54.738Z,59.30
2018-08-07T07:50:54.539Z,59.71
2018-08-07T07:51:54.653Z,59.03
2018-08-07T07:52:54.506Z,59.52
2018-08-07T07:53:54.566Z,60.00
2018-08-07T07:54:54.574Z,58.45
2018-08-07T07:55:54.458Z,58.55
2018-08-07T07:56:54.581Z,58.45
2018-08-07T07:57:54.421Z,58.06
2018-08-07T07:58:54.605Z,58.36
2018-08-07T07:59:54.386Z,57.48
2018-08-07T08:00:54.508Z,57.78
2018-08-07T08:01:54.363Z,58.67
2018-08-07T08:02:54.423Z,58.09
2018-08-07T08:03:54.323Z,58.48
2018-08-07T08:04:54.436Z,58.09
2018-08-07T08:05:54.291Z,58.48
2018-08-07T08:06:54.295Z,58.29
2018-08-07T08:07:54.455Z,57.03
2018-08-07T08:08:54.234Z,56.93
2018-08-07T08:09:54.228Z,57.22
2018-08-07T08:10:54.221Z,57.54
2018-08-07T08:11:55.004Z,57.83
2018-08-07T08:12:54.183Z,57.15
2018-08-07T08:13:54.158Z,57.15
2018-08-07T08:14:54.139Z,55.21
2018-08-07T08:15:54.129Z,55.02
2018-08-07T08:16:54.107Z,54.24
2018-08-07T08:17:54.093Z,54.94
2018-08-07T08:18:54.228Z,55.43
2018-08-07T08:19:54.055Z,52.94
2018-08-07T08:20:54.045Z,52.15
2018-08-07T08:21:54.025Z,52.45
2018-08-07T08:22:54.153Z,53.74
2018-08-07T08:23:53.989Z,54.71
2018-08-07T08:24:53.975Z,55.75
2018-08-07T08:25:54.174Z,56.16
2018-08-07T08:26:53.939Z,55.00
2018-08-07T08:27:53.976Z,54.90
2018-08-07T08:28:53.965Z,55.29
2018-08-07T08:29:54.077Z,53.93
2018-08-07T08:30:53.874Z,54.90
2018-08-07T08:31:53.908Z,53.83
2018-08-07T08:32:53.846Z,51.40
2018-08-07T08:33:53.830Z,50.63
2018-08-07T08:34:53.834Z,51.01
2018-08-07T08:35:53.802Z,51.11
2018-08-07T08:36:53.851Z,50.92
2018-08-07T08:37:53.775Z,50.56
2018-08-07T08:38:53.760Z,50.92
2018-08-07T08:39:53.865Z,49.39
2018-08-07T08:40:53.778Z,49.87
2018-08-07T08:41:53.781Z,49.58
2018-08-07T08:42:53.692Z,48.71
2018-08-07T08:43:53.674Z,47.74
2018-08-07T08:44:53.700Z,49.29
2018-08-07T08:45:53.661Z,47.56
2018-08-07T08:46:53.629Z,46.50
2018-08-07T08:47:53.647Z,48.17
2018-08-07T08:48:53.596Z,46.91
2018-08-07T08:49:53.585Z,47.00
2018-08-07T08:50:53.635Z,46.42
2018-08-07T08:51:53.558Z,47.49
2018-08-07T08:52:53.533Z,47.00
2018-08-07T08:53:53.578Z,46.15
2018-08-07T08:54:53.560Z,45.95
2018-08-07T08:55:53.492Z,45.76
2018-08-07T08:56:53.477Z,46.64
2018-08-07T08:57:53.534Z,46.37
2018-08-07T08:58:53.448Z,44.62
2018-08-07T08:59:53.426Z,43.08
2018-08-07T09:00:53.502Z,42.30
2018-08-07T09:01:53.399Z,42.20
2018-08-07T09:02:53.383Z,44.95
2018-08-07T09:03:53.370Z,42.71
2018-08-07T09:04:53.372Z,42.73
2018-08-07T09:05:53.333Z,41.19
2018-08-07T09:06:53.354Z,42.55
2018-08-07T09:07:53.304Z,45.02
2018-08-07T09:08:53.296Z,42.87
2018-08-07T09:09:53.360Z,40.82
2018-08-07T09:10:53.265Z,42.40
2018-08-07T09:11:53.248Z,41.25
2018-08-07T09:12:53.238Z,41.54
2018-08-07T09:13:53.224Z,40.37
2018-08-07T09:14:53.204Z,39.88
2018-08-07T09:15:53.203Z,38.42
2018-08-07T09:16:53.176Z,38.81
2018-08-07T09:17:53.163Z,38.51
2018-08-07T09:18:53.150Z,39.22
2018-08-07T09:19:53.135Z,39.22
2018-08-07T09:20:53.125Z,38.04
2018-08-07T09:21:53.103Z,38.34
2018-08-07T09:22:53.090Z,39.12
2018-08-07T09:23:53.076Z,39.92
2018-08-07T09:24:53.068Z,38.84
2018-08-07T09:25:53.211Z,37.37
2018-08-07T09:26:53.036Z,38.06
2018-08-07T09:27:53.022Z,39.64
2018-08-07T09:28:53.016Z,39.47
2018-08-07T09:29:52.992Z,39.70
2018-08-07T09:30:52.982Z,38.45
2018-08-07T09:31:52.985Z,37.27
2018-08-07T09:32:52.972Z,38.17
2018-08-07T09:33:52.939Z,36.91
2018-08-07T09:34:52.922Z,36.32
2018-08-07T09:35:52.942Z,36.63
2018-08-07T09:36:52.901Z,34.06
2018-08-07T09:37:52.904Z,34.15
2018-08-07T09:38:52.873Z,35.52
2018-08-07T09:39:52.856Z,36.70
2018-08-07T09:40:52.853Z,36.80
2018-08-07T09:41:52.834Z,37.01
2018-08-07T09:42:52.821Z,36.34
2018-08-07T09:43:52.832Z,34.97
2018-08-07T09:44:52.795Z,34.10
2018-08-07T09:45:52.779Z,35.88
2018-08-07T09:46:52.767Z,34.92
2018-08-07T09:47:52.756Z,33.75
2018-08-07T09:48:52.744Z,34.44
2018-08-07T09:49:52.847Z,33.95
2018-08-07T09:50:52.732Z,35.44
2018-08-07T09:51:52.706Z,34.87
2018-08-07T09:52:52.700Z,33.01
2018-08-07T09:53:52.732Z,33.42
2018-08-07T09:54:52.669Z,32.54
2018-08-07T09:55:52.684Z,30.57
2018-08-07T09:56:52.648Z,31.65
2018-08-07T09:57:52.633Z,31.72
2018-08-07T09:58:52.662Z,31.82
2018-08-07T09:59:52.609Z,30.63
2018-08-07T10:00:52.604Z,30.54
2018-08-07T10:01:52.586Z,31.82
2018-08-07T10:02:52.575Z,31.13
2018-08-07T10:03:52.720Z,31.80
2018-08-07T10:04:52.546Z,32.11
2018-08-07T10:05:52.735Z,31.23
2018-08-07T10:06:52.529Z,30.72
2018-08-07T10:07:52.647Z,31.11
2018-08-07T10:08:52.506Z,33.00
2018-08-07T10:09:52.532Z,32.52
2018-08-07T10:10:52.671Z,31.85
2018-08-07T10:11:52.468Z,31.67
2018-08-07T10:12:52.582Z,30.89
2018-08-07T10:13:52.446Z,31.88
2018-08-07T10:14:52.594Z,29.92
2018-08-07T10:15:52.424Z,29.14
2018-08-07T10:16:52.506Z,31.02
2018-08-07T10:17:52.452Z,28.35
2018-08-07T10:18:52.419Z,29.03
2018-08-07T10:19:52.382Z,29.00
2018-08-07T10:20:52.434Z,29.99
2018-08-07T10:21:52.368Z,29.20
2018-08-07T10:22:52.446Z,30.00
2018-08-07T10:23:52.337Z,29.11
2018-08-07T10:24:52.362Z,30.51
2018-08-07T10:25:52.318Z,28.14
2018-08-07T10:26:52.374Z,29.03
2018-08-07T10:27:52.299Z,29.43
2018-08-07T10:28:52.388Z,27.06
2018-08-07T10:29:52.280Z,27.93
2018-08-07T10:30:52.405Z,28.52
2018-08-07T10:31:52.260Z,29.62
2018-08-07T10:32:52.309Z,29.03
2018-08-07T10:33:52.244Z,29.43
2018-08-07T10:34:52.335Z,30.02
2018-08-07T10:35:52.220Z,28.94
2018-08-07T10:36:52.343Z,31.93
2018-08-07T10:37:52.200Z,30.16
2018-08-07T10:38:52.246Z,28.09
2018-08-07T10:39:52.182Z,27.90
2018-08-07T10:40:52.310Z,28.49
2018-08-07T10:41:52.274Z,27.90
2018-08-07T10:42:52.152Z,27.90
2018-08-07T10:43:52.426Z,28.59
2018-08-07T10:44:52.133Z,27.33
2018-08-07T10:45:52.202Z,27.94
2018-08-07T10:46:52.118Z,25.76
2018-08-07T10:47:52.270Z,26.44
2018-08-07T10:48:52.099Z,26.25
2018-08-07T10:49:52.230Z,25.14
2018-08-07T10:50:52.147Z,25.71
2018-08-07T10:51:52.161Z,28.07
2018-08-07T10:52:52.074Z,28.97
2018-08-07T10:53:52.057Z,29.28
2018-08-07T10:54:52.048Z,29.60
2018-08-07T10:55:52.038Z,29.71
2018-08-07T10:56:52.148Z,29.03
2018-08-07T10:57:52.025Z,29.54
2018-08-07T10:58:52.013Z,28.36
2018-08-07T10:59:52.099Z,27.88
2018-08-07T11:00:51.993Z,27.30
2018-08-07T11:01:52.008Z,27.10
2018-08-07T11:02:51.969Z,26.01
2018-08-07T11:03:52.125Z,25.82
2018-08-07T11:04:51.963Z,27.31
2018-08-07T11:05:52.042Z,24.33
2018-08-07T11:06:51.941Z,23.74
2018-08-07T11:07:52.051Z,23.52
2018-08-07T11:08:51.929Z,22.71
2018-08-07T11:09:52.065Z,25.57
2018-08-07T11:10:51.913Z,23.59
2018-08-07T11:11:51.977Z,25.97
2018-08-07T11:12:51.901Z,24.88
2018-08-07T11:13:52.082Z,24.69
2018-08-07T11:14:51.875Z,24.49
2018-08-07T11:15:52.007Z,25.68
2018-08-07T11:16:51.864Z,27.58
2018-08-07T11:17:52.020Z,26.52
2018-08-07T11:18:51.850Z,22.73
2018-08-07T11:19:51.861Z,24.71
2018-08-07T11:20:51.938Z,23.41
2018-08-07T11:21:51.826Z,24.22
2018-08-07T11:22:51.956Z,22.83
2018-08-07T11:23:51.811Z,22.14
2018-08-07T11:24:52.086Z,21.94
2018-08-07T11:25:51.797Z,21.83
2018-08-07T11:26:51.883Z,24.41
2018-08-07T11:27:51.775Z,22.42
2018-08-07T11:28:51.976Z,23.32
2018-08-07T11:29:51.781Z,23.39
2018-08-07T11:30:51.899Z,23.99
2018-08-07T11:31:51.756Z,23.59
2018-08-07T11:32:51.937Z,22.69
2018-08-07T11:33:51.742Z,23.97
2018-08-07T11:34:51.836Z,23.57
2018-08-07T11:35:51.731Z,23.57
2018-08-07T11:36:51.728Z,23.27
2018-08-07T11:37:51.846Z,25.37
2018-08-07T11:38:51.708Z,22.67
2018-08-07T11:39:51.871Z,23.47
2018-08-07T11:40:51.693Z,22.48
2018-08-07T11:41:51.885Z,22.37
2018-08-07T11:42:51.674Z,23.36
2018-08-07T11:43:51.799Z,23.85
2018-08-07T11:44:51.667Z,23.16
2018-08-07T11:45:51.817Z,23.44
2018-08-07T11:46:51.649Z,22.75
2018-08-07T11:47:51.869Z,23.74
2018-08-07T11:48:51.641Z,25.84
2018-08-07T11:49:51.739Z,23.97
2018-08-07T11:50:51.621Z,23.68
2018-08-07T11:51:51.754Z,21.81
2018-08-07T11:52:51.626Z,21.40
2018-08-07T11:53:51.771Z,21.61
2018-08-07T11:54:51.604Z,22.80
2018-08-07T11:55:51.594Z,21.81
2018-08-07T11:56:51.788Z,21.71
2018-08-07T11:57:51.570Z,21.91
2018-08-07T11:58:51.701Z,22.29
2018-08-07T11:59:51.583Z,19.89
2018-08-07T12:00:51.711Z,22.56
2018-08-07T12:01:51.564Z,22.75
2018-08-07T12:02:51.728Z,20.78
2018-08-07T12:03:51.534Z,22.15
2018-08-07T12:04:51.732Z,24.22
2018-08-07T12:05:51.526Z,22.95
2018-08-07T12:06:51.515Z,22.56
2018-08-07T12:07:51.531Z,21.48
2018-08-07T12:08:51.569Z,23.26
2018-08-07T12:09:51.504Z,23.57
2018-08-07T12:10:51.495Z,22.69
2018-08-07T12:11:51.482Z,22.20
2018-08-07T12:12:51.468Z,22.11
2018-08-07T12:13:51.466Z,22.60
2018-08-07T12:14:51.467Z,21.81
2018-08-07T12:15:51.449Z,21.51
2018-08-07T12:16:51.445Z,21.40
2018-08-07T12:17:51.527Z,23.08
2018-08-07T12:18:51.430Z,22.40
2018-08-07T12:19:51.542Z,21.91
2018-08-07T12:20:51.409Z,22.60
2018-08-07T12:21:51.453Z,23.90
2018-08-07T12:22:51.398Z,22.72
2018-08-07T12:23:51.395Z,21.63
2018-08-07T12:24:51.475Z,21.03
2018-08-07T12:25:51.378Z,21.33
2018-08-07T12:26:51.489Z,21.13
2018-08-07T12:27:51.419Z,22.33
2018-08-07T12:28:51.400Z,22.22
2018-08-07T12:29:51.353Z,21.63
2018-08-07T12:30:51.435Z,23.33
2018-08-07T12:31:51.337Z,22.73
2018-08-07T12:32:51.428Z,23.04
2018-08-07T12:33:51.325Z,23.85
2018-08-07T12:34:51.444Z,20.07
2018-08-07T12:35:51.314Z,23.35
2018-08-07T12:36:51.458Z,24.24
2018-08-07T12:37:51.300Z,23.86
2018-08-07T12:38:51.372Z,20.68
2018-08-07T12:39:51.287Z,20.89
2018-08-07T12:40:51.380Z,21.68
2018-08-07T12:41:51.273Z,19.88
2018-08-07T12:42:51.404Z,19.78
2018-08-07T12:43:51.261Z,19.48
2018-08-07T12:44:51.423Z,19.37
2018-08-07T12:45:51.255Z,20.95
2018-08-07T12:46:51.332Z,20.65
2018-08-07T12:47:51.228Z,21.44
2018-08-07T12:48:51.341Z,20.94
2018-08-07T12:49:51.227Z,20.14
2018-08-07T12:50:51.356Z,21.52
2018-08-07T12:51:51.214Z,21.01